Time;durP1;ratioP1;P1;durP2;ratioP2;P2;SDS_P1;SDS_P2;PMS_P1;PMS_P2;Temp;Humidity;BMP_temperature;BMP_pressure;BME280_temperature;BME280_humidity;BME280_pressure;Samples;Min_cycle;Max_cycle;Signal;HPM_P1;HPM_P2
2023/01/19 00:01:23;;;;;;;21.10;11.50;;;-1.10;1.00;;;;;;4970481;28;20183;-76
2023/01/19 00:03:49;;;;;;;25.83;11.97;;;-0.90;1.00;;;;;;4971319;28;20435;-75
2023/01/19 00:06:15;;;;;;;26.20;12.93;;;-0.90;1.00;;;;;;4971532;28;20442;-75
2023/01/19 00:08:43;;;;;;;26.40;12.33;;;-1.40;1.00;;;;;;4971834;28;20303;-75
2023/01/19 00:11:09;;;;;;;27.83;14.37;;;-1.00;1.00;;;;;;4971796;28;20439;-75
2023/01/19 00:13:35;;;;;;;27.27;13.40;;;-1.00;1.00;;;;;;4970235;28;20520;-75
2023/01/19 00:16:01;;;;;;;23.70;13.27;;;-1.00;1.00;;;;;;4971605;28;20547;-76
2023/01/19 00:18:26;;;;;;;25.13;14.23;;;-1.00;1.00;;;;;;4966868;28;20531;-75
2023/01/19 00:20:52;;;;;;;21.50;12.90;;;-1.30;1.00;;;;;;4970551;28;20204;-75
2023/01/19 00:23:19;;;;;;;21.93;12.53;;;-1.00;1.00;;;;;;4970654;28;20199;-76
2023/01/19 00:25:46;;;;;;;23.13;12.97;;;-1.40;1.00;;;;;;4968497;28;20642;-75
2023/01/19 00:28:13;;;;;;;24.20;12.50;;;-1.40;1.00;;;;;;4966570;28;20427;-76
2023/01/19 00:30:39;;;;;;;25.90;14.63;;;-0.90;1.40;;;;;;4967594;28;20455;-75
2023/01/19 00:33:05;;;;;;;19.00;10.57;;;-0.90;2.00;;;;;;4970215;28;20812;-74
2023/01/19 00:35:30;;;;;;;21.60;12.00;;;-1.30;1.00;;;;;;4972596;28;20435;-73
2023/01/19 00:37:57;;;;;;;23.20;12.13;;;-1.30;1.10;;;;;;4970080;28;20207;-75
2023/01/19 00:40:22;;;;;;;23.33;13.43;;;-0.80;1.00;;;;;;4969625;28;20686;-75
2023/01/19 00:42:48;;;;;;;26.10;12.40;;;-0.80;5.00;;;;;;4971665;28;20454;-75
2023/01/19 00:45:17;;;;;;;20.00;11.57;;;-1.20;1.00;;;;;;4971248;28;20191;-75
2023/01/19 00:47:43;;;;;;;21.47;11.90;;;-1.20;1.00;;;;;;4971091;28;20610;-75
2023/01/19 00:50:10;;;;;;;23.07;11.77;;;-0.70;1.00;;;;;;4976978;28;20477;-76
2023/01/19 00:52:36;;;;;;;22.83;11.80;;;-1.10;1.00;;;;;;4969972;28;20487;-75
2023/01/19 00:55:02;;;;;;;22.67;12.87;;;-1.10;1.00;;;;;;4970735;28;20513;-75
2023/01/19 00:57:28;;;;;;;21.90;12.60;;;-1.20;1.00;;;;;;4985495;28;20474;-75
2023/01/19 00:59:54;;;;;;;22.53;13.47;;;-1.20;1.20;;;;;;4969113;28;20211;-76
2023/01/19 01:02:19;;;;;;;20.23;12.10;;;-1.20;1.00;;;;;;4971116;28;20266;-75
2023/01/19 01:04:45;;;;;;;28.87;12.90;;;-1.10;3.40;;;;;;4972514;28;20180;-76
2023/01/19 01:07:10;;;;;;;21.73;12.83;;;-1.20;3.50;;;;;;4971155;28;20246;-75
2023/01/19 01:09:36;;;;;;;25.47;12.83;;;-0.80;4.70;;;;;;4971741;28;20649;-75
2023/01/19 01:12:02;;;;;;;22.70;12.17;;;-1.20;3.00;;;;;;4971227;28;20235;-75
2023/01/19 01:14:27;;;;;;;25.53;13.03;;;-1.10;4.90;;;;;;4969811;28;20562;-76
2023/01/19 01:16:53;;;;;;;20.13;12.67;;;-1.10;3.20;;;;;;4969088;28;20219;-76
2023/01/19 01:19:20;;;;;;;21.70;12.00;;;-0.50;2.80;;;;;;4969588;28;20625;-75
2023/01/19 01:21:45;;;;;;;24.80;13.30;;;-0.50;3.40;;;;;;4970019;28;20741;-76
2023/01/19 01:24:11;;;;;;;23.43;12.67;;;-0.50;5.50;;;;;;4969827;28;20447;-75
2023/01/19 01:26:36;;;;;;;24.87;13.10;;;-0.50;3.90;;;;;;4968935;28;20230;-76
2023/01/19 01:29:03;;;;;;;24.43;13.70;;;-0.30;4.50;;;;;;4969734;28;20216;-76
2023/01/19 01:31:29;;;;;;;21.07;13.13;;;-0.30;5.60;;;;;;4969886;28;20192;-75
2023/01/19 01:33:55;;;;;;;22.57;11.60;;;-0.30;2.80;;;;;;4965673;28;20494;-75
2023/01/19 01:36:20;;;;;;;23.93;12.73;;;-0.60;2.20;;;;;;4973661;28;20559;-75
2023/01/19 01:38:47;;;;;;;23.80;13.80;;;-0.70;1.00;;;;;;4968969;28;20565;-76
2023/01/19 01:41:12;;;;;;;22.37;12.40;;;-0.20;2.10;;;;;;4970143;28;20231;-76
2023/01/19 01:43:50;;;;;;;22.30;12.50;;;-0.60;3.00;;;;;;4969568;28;20934;-76
2023/01/19 01:46:16;;;;;;;20.70;12.40;;;-0.10;3.10;;;;;;4970356;28;20195;-75
2023/01/19 01:48:53;;;;;;;22.13;12.97;;;-0.20;5.40;;;;;;4969936;28;20485;-75
2023/01/19 01:51:26;;;;;;;24.23;12.77;;;-0.60;6.50;;;;;;4970335;28;20435;-73
2023/01/19 01:54:01;;;;;;;19.60;11.93;;;-0.20;5.50;;;;;;4968124;28;20542;-75
2023/01/19 01:56:33;;;;;;;25.43;12.87;;;-0.50;4.70;;;;;;4968843;28;20466;-76
2023/01/19 01:59:03;;;;;;;28.53;13.03;;;0.00;5.70;;;;;;4969504;28;20900;-75
2023/01/19 02:04:13;;;;;;;28.83;14.23;;;-0.30;1.70;;;;;;4973677;28;20825;-75
2023/01/19 02:14:56;;;;;;;25.30;12.87;;;-0.40;4.40;;;;;;4974632;28;20453;-76
2023/01/19 02:17:22;;;;;;;22.83;12.90;;;-0.50;2.40;;;;;;4965363;28;20996;-76
2023/01/19 02:19:47;;;;;;;24.43;13.43;;;-0.50;5.10;;;;;;4969225;28;20215;-76
2023/01/19 02:22:28;;;;;;;22.93;12.47;;;-0.10;6.40;;;;;;4969212;28;20188;-75
2023/01/19 02:24:54;;;;;;;23.63;13.60;;;-0.50;5.80;;;;;;4962566;28;20664;-75
2023/01/19 02:27:19;;;;;;;24.00;13.40;;;-0.10;5.50;;;;;;4970334;28;20443;-76
2023/01/19 02:29:45;;;;;;;22.80;13.17;;;-0.40;4.40;;;;;;4967729;28;20223;-75
2023/01/19 02:32:11;;;;;;;24.40;13.20;;;-0.30;3.00;;;;;;4968955;28;20191;-75
2023/01/19 02:34:37;;;;;;;23.13;13.00;;;-0.20;2.50;;;;;;4971022;28;20188;-77
2023/01/19 02:37:10;;;;;;;22.10;12.53;;;-0.20;2.70;;;;;;4968946;28;20474;-75
2023/01/19 02:39:41;;;;;;;24.50;13.10;;;-0.50;1.20;;;;;;4977096;28;20203;-75
2023/01/19 02:42:27;;;;;;;23.60;13.00;;;0.10;2.90;;;;;;4969266;28;20649;-75
2023/01/19 02:44:54;;;;;;;25.37;12.50;;;-0.20;1.70;;;;;;4969562;28;20506;-75
2023/01/19 02:47:20;;;;;;;26.43;12.03;;;-0.10;1.20;;;;;;4969312;28;21027;-75
2023/01/19 02:49:59;;;;;;;21.77;12.73;;;-0.10;1.00;;;;;;4975482;28;20471;-75
2023/01/19 02:52:26;;;;;;;19.13;11.93;;;0.10;1.00;;;;;;4969785;28;20191;-77
2023/01/19 02:55:18;;;;;;;22.00;11.83;;;0.00;1.00;;;;;;4972749;28;20478;-75
2023/01/19 02:57:55;;;;;;;21.40;11.57;;;0.60;1.00;;;;;;4976466;28;20467;-75
2023/01/19 03:00:26;;;;;;;21.53;12.57;;;0.20;1.00;;;;;;4971878;28;20550;-75
2023/01/19 03:03:10;;;;;;;24.03;12.40;;;0.60;1.00;;;;;;4971690;28;20506;-75
2023/01/19 03:05:50;;;;;;;21.43;12.03;;;0.20;1.00;;;;;;4980401;28;20936;-75
2023/01/19 03:08:23;;;;;;;22.47;12.80;;;0.10;1.00;;;;;;4973584;28;20445;-75
2023/01/19 03:11:04;;;;;;;20.33;12.30;;;0.10;1.00;;;;;;4970786;28;20510;-76
2023/01/19 03:13:57;;;;;;;21.77;11.80;;;0.10;1.00;;;;;;4971367;28;20443;-75
2023/01/19 03:16:42;;;;;;;20.17;11.93;;;0.10;1.00;;;;;;4970328;28;20850;-76
2023/01/19 03:19:20;;;;;;;21.43;12.30;;;0.60;1.00;;;;;;4973774;28;20462;-75
2023/01/19 03:21:53;;;;;;;23.10;11.60;;;0.20;1.00;;;;;;4973269;28;21015;-75
2023/01/19 03:24:21;;;;;;;20.30;12.00;;;0.50;1.00;;;;;;4972363;28;20755;-76
2023/01/19 03:26:54;;;;;;;22.57;11.50;;;0.20;1.00;;;;;;4971386;28;20520;-75
2023/01/19 03:29:21;;;;;;;26.20;12.10;;;0.40;1.00;;;;;;4970344;28;20483;-75
2023/01/19 03:31:49;;;;;;;24.97;12.53;;;0.70;1.00;;;;;;4971372;28;20956;-76
2023/01/19 03:34:16;;;;;;;25.10;11.77;;;0.30;1.00;;;;;;4972363;28;20475;-75
2023/01/19 03:36:46;;;;;;;18.77;11.57;;;0.30;1.00;;;;;;4971977;28;20525;-75
2023/01/19 03:39:17;;;;;;;18.07;11.27;;;0.70;1.00;;;;;;4972831;28;20462;-75
2023/01/19 03:41:46;;;;;;;21.47;11.90;;;0.40;1.00;;;;;;4971345;28;20505;-75
2023/01/19 03:44:12;;;;;;;21.73;11.30;;;0.40;1.00;;;;;;4970657;28;20477;-75
2023/01/19 03:46:39;;;;;;;17.83;11.47;;;0.40;1.00;;;;;;4972316;28;20877;-74
2023/01/19 03:49:06;;;;;;;20.67;12.40;;;0.40;1.00;;;;;;4970630;28;20841;-77
2023/01/19 03:51:36;;;;;;;17.27;11.33;;;0.40;1.00;;;;;;4972700;28;20442;-75
2023/01/19 03:54:04;;;;;;;23.30;12.33;;;0.80;1.00;;;;;;4971763;28;20538;-75
2023/01/19 03:56:30;;;;;;;19.60;11.33;;;0.50;1.00;;;;;;4972166;28;20459;-75
2023/01/19 03:58:55;;;;;;;19.93;12.07;;;0.50;1.00;;;;;;4976278;28;20450;-75
2023/01/19 04:01:21;;;;;;;26.30;13.03;;;0.50;1.00;;;;;;4972511;28;20647;-74
2023/01/19 04:03:48;;;;;;;21.07;12.00;;;0.20;1.00;;;;;;4972100;28;20267;-72
2023/01/19 04:06:13;;;;;;;21.30;12.17;;;0.50;1.00;;;;;;4974084;28;20513;-77
2023/01/19 04:08:39;;;;;;;25.63;13.77;;;0.60;1.00;;;;;;4972127;28;20853;-76
2023/01/19 04:11:07;;;;;;;24.43;13.67;;;0.50;1.00;;;;;;4971049;28;20184;-75
2023/01/19 04:13:33;;;;;;;26.73;13.30;;;0.50;1.00;;;;;;4972802;28;20188;-75
2023/01/19 04:16:02;;;;;;;29.67;16.07;;;0.50;1.00;;;;;;4971653;28;20431;-75
2023/01/19 04:18:29;;;;;;;31.73;15.47;;;0.60;1.00;;;;;;4969909;28;20439;-76
2023/01/19 04:20:58;;;;;;;24.07;13.20;;;0.60;1.00;;;;;;4971929;28;23460;-75
2023/01/19 04:23:24;;;;;;;36.03;14.83;;;0.60;1.00;;;;;;4970225;28;20466;-74
2023/01/19 04:25:49;;;;;;;28.03;15.27;;;0.40;1.00;;;;;;4971268;28;20930;-75
2023/01/19 04:28:15;;;;;;;26.50;14.07;;;0.30;1.00;;;;;;4969969;28;20176;-74
2023/01/19 04:30:41;;;;;;;23.17;13.50;;;0.40;1.00;;;;;;4971104;28;20278;-75
2023/01/19 04:33:06;;;;;;;25.13;13.90;;;0.70;1.00;;;;;;4970045;28;20266;-75
2023/01/19 04:35:33;;;;;;;29.17;15.73;;;0.30;1.70;;;;;;4974028;28;20187;-75
2023/01/19 04:37:58;;;;;;;25.97;14.63;;;0.50;2.40;;;;;;4969212;28;20246;-75
2023/01/19 04:40:24;;;;;;;30.90;16.30;;;0.20;2.10;;;;;;4969949;28;20491;-75
2023/01/19 04:42:49;;;;;;;25.57;15.30;;;0.50;2.00;;;;;;4971339;28;20195;-75
2023/01/19 04:45:16;;;;;;;32.17;16.57;;;0.10;2.10;;;;;;4974514;28;20234;-75
2023/01/19 04:47:41;;;;;;;31.33;15.63;;;0.10;1.60;;;;;;4972383;28;20194;-76
2023/01/19 04:50:08;;;;;;;25.53;14.90;;;0.10;1.50;;;;;;4971330;28;20463;-75
2023/01/19 04:52:34;;;;;;;39.40;20.53;;;0.10;3.40;;;;;;4974714;28;20620;-76
2023/01/19 04:55:01;;;;;;;48.67;23.87;;;0.40;3.60;;;;;;4973151;28;20791;-77
2023/01/19 04:57:28;;;;;;;33.47;18.20;;;0.50;2.90;;;;;;4968884;28;20467;-75
2023/01/19 04:59:55;;;;;;;33.00;16.50;;;0.70;2.20;;;;;;4969662;28;21013;-76
2023/01/19 05:02:21;;;;;;;31.77;17.60;;;0.60;1.00;;;;;;4970489;28;20434;-77
2023/01/19 05:04:47;;;;;;;33.20;18.20;;;0.30;1.00;;;;;;4974481;28;20434;-75
2023/01/19 05:07:12;;;;;;;23.97;13.80;;;0.40;1.00;;;;;;4971260;28;20458;-76
2023/01/19 05:09:38;;;;;;;26.10;13.60;;;0.50;1.00;;;;;;4969585;28;20736;-76
2023/01/19 05:12:04;;;;;;;23.17;13.37;;;1.00;1.00;;;;;;4970844;28;20685;-75
2023/01/19 05:14:30;;;;;;;25.47;13.00;;;0.70;1.00;;;;;;4977124;28;20222;-74
2023/01/19 05:16:55;;;;;;;23.33;12.93;;;0.80;1.00;;;;;;4967759;28;20236;-75
2023/01/19 05:19:21;;;;;;;20.77;12.17;;;0.70;1.00;;;;;;4973599;28;20881;-76
2023/01/19 05:21:46;;;;;;;19.30;12.27;;;1.10;1.00;;;;;;4971559;28;20183;-76
2023/01/19 05:24:12;;;;;;;37.03;14.47;;;0.80;1.00;;;;;;4971275;28;20542;-75
2023/01/19 05:26:37;;;;;;;23.70;13.17;;;1.00;1.00;;;;;;4969168;28;20187;-75
2023/01/19 05:29:03;;;;;;;20.90;12.50;;;1.10;1.00;;;;;;4968995;28;20203;-74
2023/01/19 05:31:29;;;;;;;22.43;12.30;;;1.20;1.00;;;;;;4972054;28;20191;-75
2023/01/19 05:33:54;;;;;;;22.90;13.00;;;1.00;1.00;;;;;;4968836;28;20191;-74
2023/01/19 05:36:20;;;;;;;22.30;12.37;;;0.70;1.00;;;;;;4974897;28;20709;-75
2023/01/19 05:38:45;;;;;;;22.50;12.83;;;0.60;1.00;;;;;;4968928;28;20180;-75
2023/01/19 05:41:11;;;;;;;19.07;11.73;;;1.10;1.00;;;;;;4971018;28;20681;-74
2023/01/19 05:43:36;;;;;;;23.07;12.60;;;0.50;1.00;;;;;;4971904;28;20689;-74
2023/01/19 05:46:04;;;;;;;19.20;11.17;;;0.80;1.00;;;;;;4970090;28;20180;-74
2023/01/19 05:48:29;;;;;;;21.57;12.40;;;0.50;1.00;;;;;;4969526;28;20597;-75
2023/01/19 05:50:59;;;;;;;20.73;13.10;;;0.80;1.70;;;;;;4970622;28;20455;-75
2023/01/19 05:53:24;;;;;;;20.93;12.50;;;0.50;1.90;;;;;;4967941;28;20498;-74
2023/01/19 05:55:50;;;;;;;26.03;13.50;;;0.50;2.60;;;;;;4972075;28;20431;-75
2023/01/19 05:58:15;;;;;;;29.90;13.10;;;0.50;3.60;;;;;;4969576;28;20208;-74
2023/01/19 06:00:41;;;;;;;24.93;12.90;;;0.40;4.90;;;;;;4984970;28;20754;-74
2023/01/19 06:03:07;;;;;;;20.00;12.07;;;0.30;5.10;;;;;;4970339;28;20184;-74
2023/01/19 06:05:32;;;;;;;24.47;13.30;;;0.30;6.40;;;;;;4972008;28;20180;-74
2023/01/19 06:07:58;;;;;;;20.30;12.80;;;0.80;7.40;;;;;;4967713;28;20594;-75
2023/01/19 06:10:24;;;;;;;22.40;12.73;;;0.30;7.70;;;;;;4970660;28;20211;-74
2023/01/19 06:12:51;;;;;;;24.53;13.40;;;0.30;6.90;;;;;;4969165;28;20206;-78
2023/01/19 06:15:17;;;;;;;23.07;14.00;;;0.40;5.30;;;;;;4968936;28;20243;-74
2023/01/19 06:17:42;;;;;;;22.23;12.80;;;0.80;5.80;;;;;;4968914;28;20984;-72
2023/01/19 06:20:08;;;;;;;23.90;13.07;;;0.70;3.90;;;;;;4968955;28;20270;-75
2023/01/19 06:22:34;;;;;;;23.63;13.50;;;0.50;4.40;;;;;;4970010;28;20323;-76
2023/01/19 06:24:59;;;;;;;28.13;13.33;;;0.60;4.60;;;;;;4970534;28;21003;-75
2023/01/19 06:27:25;;;;;;;26.17;13.20;;;0.70;2.80;;;;;;4969670;28;20222;-75
2023/01/19 06:29:50;;;;;;;23.10;12.23;;;0.80;1.00;;;;;;5001972;23;20228;-77
2023/01/19 06:32:16;;;;;;;23.17;13.30;;;0.90;1.00;;;;;;4957622;28;20196;-77
2023/01/19 06:34:42;;;;;;;24.93;13.43;;;1.40;1.00;;;;;;4960221;28;20603;-77
2023/01/19 06:37:10;;;;;;;25.30;14.13;;;1.30;1.00;;;;;;4952141;28;20877;-78
2023/01/19 06:39:36;;;;;;;19.57;11.77;;;1.60;1.00;;;;;;4954798;28;20487;-78
2023/01/19 06:42:02;;;;;;;21.80;11.73;;;1.10;1.00;;;;;;4947782;28;20441;-76
2023/01/19 06:44:28;;;;;;;18.63;11.37;;;1.40;1.00;;;;;;4954502;28;20436;-75
2023/01/19 06:46:53;;;;;;;24.07;12.33;;;1.10;1.00;;;;;;4953149;28;20188;-77
2023/01/19 06:49:19;;;;;;;19.20;10.70;;;1.20;1.00;;;;;;4952694;28;20567;-80
2023/01/19 06:51:44;;;;;;;19.57;10.97;;;1.50;1.00;;;;;;4950612;28;20184;-76
2023/01/19 06:54:10;;;;;;;21.70;12.03;;;1.70;1.00;;;;;;4952365;28;20220;-77
2023/01/19 06:56:35;;;;;;;19.13;10.97;;;1.70;1.00;;;;;;4950880;28;20216;-77
2023/01/19 06:59:01;;;;;;;20.37;11.23;;;1.30;1.00;;;;;;4954372;28;20658;-76
2023/01/19 07:01:26;;;;;;;18.70;11.93;;;1.30;1.00;;;;;;4954549;28;20287;-76
2023/01/19 07:03:52;;;;;;;23.07;11.77;;;1.30;1.00;;;;;;4947535;28;20184;-77
2023/01/19 07:06:18;;;;;;;28.20;12.90;;;1.80;1.00;;;;;;4953996;28;20471;-76
2023/01/19 07:08:43;;;;;;;26.43;12.47;;;1.30;1.00;;;;;;4953037;28;20184;-77
2023/01/19 07:11:11;;;;;;;20.40;11.93;;;1.30;1.00;;;;;;4953947;28;20459;-77
2023/01/19 07:13:38;;;;;;;20.83;12.00;;;1.30;1.00;;;;;;4954525;28;20188;-77
2023/01/19 07:16:09;;;;;;;18.50;11.23;;;1.30;1.00;;;;;;4948243;28;20447;-77
2023/01/19 07:18:36;;;;;;;18.93;10.70;;;1.30;1.00;;;;;;4949037;28;20519;-77
2023/01/19 07:21:02;;;;;;;21.13;11.83;;;1.50;1.00;;;;;;4953394;28;20464;-77
2023/01/19 07:23:29;;;;;;;25.00;11.43;;;1.50;1.00;;;;;;4952767;28;20808;-76
2023/01/19 07:25:56;;;;;;;19.60;11.63;;;1.80;1.00;;;;;;4953399;28;20432;-77
2023/01/19 07:28:22;;;;;;;21.43;11.57;;;1.50;1.00;;;;;;4952706;28;20523;-77
2023/01/19 07:30:52;;;;;;;15.70;10.43;;;1.50;1.00;;;;;;4953210;28;20550;-76
2023/01/19 07:33:17;;;;;;;21.60;10.80;;;1.60;1.00;;;;;;4954022;28;20184;-77
2023/01/19 07:35:47;;;;;;;20.00;11.53;;;1.60;1.00;;;;;;4953662;28;20431;-77
2023/01/19 07:38:13;;;;;;;18.10;10.70;;;1.60;1.00;;;;;;4944564;28;20239;-77
2023/01/19 07:40:38;;;;;;;18.30;10.90;;;1.60;1.00;;;;;;4951594;28;20888;-80
2023/01/19 07:43:04;;;;;;;22.75;11.63;;;2.10;1.00;;;;;;4939812;28;20514;-76
2023/01/19 07:45:29;;;;;;;18.30;11.17;;;1.80;1.00;;;;;;4939249;28;20193;-76
2023/01/19 07:47:55;;;;;;;16.23;10.30;;;2.40;1.00;;;;;;4949175;28;20600;-76
2023/01/19 07:50:24;;;;;;;20.57;10.93;;;2.00;1.00;;;;;;4951040;28;20246;-76
2023/01/19 07:52:52;;;;;;;17.87;10.93;;;2.00;1.00;;;;;;4954569;28;20216;-76
2023/01/19 07:55:18;;;;;;;18.03;10.33;;;2.50;1.00;;;;;;4953170;28;20494;-76
2023/01/19 07:57:44;;;;;;;18.23;10.00;;;2.10;1.00;;;;;;4957706;28;20563;-76
2023/01/19 08:00:10;;;;;;;17.13;10.90;;;2.50;1.00;;;;;;4953160;28;20551;-76
2023/01/19 08:02:36;;;;;;;20.93;11.47;;;2.20;1.00;;;;;;4956993;28;20196;-77
2023/01/19 08:05:02;;;;;;;17.00;10.53;;;2.60;1.00;;;;;;4952651;28;20487;-74
2023/01/19 08:07:28;;;;;;;17.73;10.67;;;2.20;1.00;;;;;;4952919;28;20432;-75
2023/01/19 08:09:53;;;;;;;18.97;10.53;;;2.70;1.00;;;;;;4952928;28;20440;-77
2023/01/19 08:12:19;;;;;;;18.83;10.80;;;2.20;1.00;;;;;;4953472;28;20231;-77
2023/01/19 08:14:44;;;;;;;18.37;10.80;;;2.20;1.00;;;;;;4951618;28;20550;-77
2023/01/19 08:17:12;;;;;;;15.90;9.77;;;2.20;1.00;;;;;;4948904;28;20689;-77
2023/01/19 08:19:38;;;;;;;18.40;9.40;;;2.70;1.00;;;;;;4951594;28;20202;-77
2023/01/19 08:22:04;;;;;;;18.60;10.07;;;2.30;1.00;;;;;;4944905;28;20451;-77
2023/01/19 08:24:30;;;;;;;18.73;9.60;;;2.30;1.00;;;;;;4952489;28;20527;-78
2023/01/19 08:27:00;;;;;;;16.83;10.30;;;2.40;1.00;;;;;;4951917;28;20528;-78
2023/01/19 08:29:26;;;;;;;21.80;12.80;;;2.50;1.00;;;;;;4952792;28;20579;-76
2023/01/19 08:31:54;;;;;;;18.57;10.73;;;2.50;1.00;;;;;;4952327;28;20447;-77
2023/01/19 08:34:20;;;;;;;18.10;10.73;;;2.60;1.00;;;;;;4952407;28;20212;-77
2023/01/19 08:36:46;;;;;;;25.07;10.80;;;3.00;1.00;;;;;;4952095;28;20499;-77
2023/01/19 08:39:12;;;;;;;15.57;10.23;;;3.00;1.00;;;;;;4952069;28;20459;-78
2023/01/19 08:41:37;;;;;;;14.30;8.47;;;2.80;1.00;;;;;;4952179;28;21053;-78
2023/01/19 08:44:03;;;;;;;16.03;9.90;;;2.70;1.00;;;;;;4951921;28;20269;-78
2023/01/19 08:46:28;;;;;;;15.17;9.30;;;2.70;1.00;;;;;;4951592;28;20189;-77
2023/01/19 08:48:54;;;;;;;13.97;9.47;;;3.10;1.00;;;;;;4951772;28;20184;-77
2023/01/19 08:51:19;;;;;;;17.17;9.77;;;2.60;1.00;;;;;;4951934;28;20208;-78
2023/01/19 08:53:45;;;;;;;16.97;10.00;;;2.60;1.00;;;;;;4952192;28;20184;-78
2023/01/19 08:56:12;;;;;;;14.40;9.00;;;2.60;1.00;;;;;;4951285;28;20204;-77
2023/01/19 08:58:43;;;;;;;15.60;9.47;;;2.60;1.00;;;;;;4943407;28;20184;-77
2023/01/19 09:01:20;;;;;;;15.40;9.73;;;2.60;1.00;;;;;;4950655;28;20455;-78
2023/01/19 09:03:46;;;;;;;17.50;9.37;;;2.70;1.00;;;;;;4950902;28;20430;-77
2023/01/19 09:06:17;;;;;;;14.70;9.33;;;2.80;1.00;;;;;;4950882;28;20429;-77
2023/01/19 09:08:43;;;;;;;16.40;9.43;;;3.20;1.00;;;;;;4946463;28;20197;-76
2023/01/19 09:11:12;;;;;;;16.83;9.90;;;2.80;1.00;;;;;;4947687;28;20479;-77
2023/01/19 09:13:38;;;;;;;14.10;9.93;;;2.90;1.00;;;;;;4950838;28;20228;-76
2023/01/19 09:16:06;;;;;;;16.17;9.50;;;3.10;1.00;;;;;;4948158;28;20427;-77
2023/01/19 09:18:33;;;;;;;17.00;10.50;;;2.70;1.00;;;;;;4949213;28;20455;-77
2023/01/19 09:20:59;;;;;;;19.80;10.07;;;3.10;1.00;;;;;;4948127;28;20444;-77
2023/01/19 09:23:25;;;;;;;16.10;9.50;;;2.70;1.00;;;;;;4947655;28;20503;-77
2023/01/19 09:25:56;;;;;;;16.03;10.07;;;3.20;1.00;;;;;;4950955;28;20427;-77
2023/01/19 09:28:21;;;;;;;15.60;9.80;;;2.90;1.00;;;;;;4945356;28;20662;-77
2023/01/19 09:30:47;;;;;;;14.20;9.57;;;3.40;1.00;;;;;;4949300;28;20474;-77
2023/01/19 09:33:15;;;;;;;17.03;10.00;;;3.20;1.00;;;;;;4951461;28;20204;-77
2023/01/19 09:35:42;;;;;;;19.90;10.53;;;2.90;1.00;;;;;;4950887;28;20209;-77
2023/01/19 09:38:09;;;;;;;16.47;9.50;;;3.10;1.00;;;;;;4951158;28;20475;-77
2023/01/19 09:40:42;;;;;;;17.33;9.60;;;3.00;1.00;;;;;;4952338;28;20889;-77
2023/01/19 09:43:12;;;;;;;16.77;10.20;;;2.90;1.00;;;;;;4951587;28;20479;-77
2023/01/19 09:45:56;;;;;;;15.53;10.27;;;2.80;1.00;;;;;;4951039;28;20925;-77
2023/01/19 09:48:33;;;;;;;18.67;10.20;;;3.20;1.00;;;;;;4945333;28;21090;-77
2023/01/19 09:51:03;;;;;;;15.80;10.30;;;3.00;1.00;;;;;;4951957;28;20444;-77
2023/01/19 09:53:37;;;;;;;15.27;9.80;;;3.50;1.00;;;;;;4951239;28;20428;-77
2023/01/19 09:56:03;;;;;;;16.70;10.33;;;3.00;1.00;;;;;;4950332;28;20427;-77
2023/01/19 09:58:28;;;;;;;20.23;9.63;;;3.10;1.00;;;;;;4951313;28;20428;-77
2023/01/19 10:01:07;;;;;;;19.27;10.27;;;3.10;1.00;;;;;;4950998;28;20253;-77
2023/01/19 10:03:36;;;;;;;17.00;10.30;;;3.30;1.00;;;;;;4951356;28;20188;-77
2023/01/19 10:06:05;;;;;;;17.30;10.90;;;3.10;1.00;;;;;;4953323;28;20482;-78
2023/01/19 10:08:56;;;;;;;21.60;11.80;;;3.20;1.00;;;;;;4955793;28;20432;-77
2023/01/19 10:11:47;;;;;;;17.53;10.00;;;3.20;1.00;;;;;;4947952;28;20514;-76
2023/01/19 10:14:28;;;;;;;23.10;10.90;;;3.10;1.00;;;;;;4954705;28;20440;-75
2023/01/19 10:17:25;;;;;;;17.67;10.30;;;3.00;1.00;;;;;;4953402;28;20471;-78
2023/01/19 10:19:54;;;;;;;14.60;9.70;;;3.00;1.00;;;;;;4950917;28;20456;-78
2023/01/19 10:22:21;;;;;;;14.13;8.03;;;3.00;1.00;;;;;;4953857;28;20436;-78
2023/01/19 10:24:51;;;;;;;16.13;11.53;;;2.90;1.00;;;;;;4953501;28;20498;-78
2023/01/19 10:27:22;;;;;;;20.50;10.17;;;2.90;1.00;;;;;;4954359;28;20526;-77
2023/01/19 10:29:48;;;;;;;20.57;10.30;;;3.40;1.00;;;;;;4952567;28;20817;-77
2023/01/19 10:32:33;;;;;;;23.93;10.43;;;3.20;1.00;;;;;;4953352;28;20523;-78
2023/01/19 10:34:59;;;;;;;17.80;10.80;;;3.30;1.00;;;;;;4954601;28;20794;-78
2023/01/19 10:37:33;;;;;;;19.00;10.10;;;3.50;1.00;;;;;;4953416;28;20467;-78
2023/01/19 10:40:18;;;;;;;16.97;10.00;;;3.80;1.00;;;;;;4954648;28;20897;-77
2023/01/19 10:42:44;;;;;;;20.40;10.70;;;3.80;1.00;;;;;;4954544;28;20679;-77
2023/01/19 10:45:18;;;;;;;21.03;10.00;;;3.70;1.00;;;;;;4954315;28;20432;-77
2023/01/19 10:47:45;;;;;;;18.73;9.33;;;3.80;1.00;;;;;;4954846;28;20192;-78
2023/01/19 10:50:31;;;;;;;17.33;9.90;;;3.80;1.00;;;;;;4954062;28;20471;-77
2023/01/19 10:53:02;;;;;;;16.60;9.60;;;4.50;1.00;;;;;;4954733;28;20436;-77
2023/01/19 10:55:30;;;;;;;16.17;10.70;;;4.00;1.00;;;;;;4952551;28;20436;-77
2023/01/19 10:57:57;;;;;;;19.53;9.97;;;4.00;1.00;;;;;;4953315;28;20464;-77
2023/01/19 11:00:36;;;;;;;16.20;9.37;;;4.10;1.00;;;;;;4954692;28;20956;-77
2023/01/19 11:03:22;;;;;;;14.63;9.27;;;4.30;1.00;;;;;;4952554;28;20825;-77
2023/01/19 11:05:47;;;;;;;15.80;9.37;;;4.70;1.00;;;;;;4948852;28;20424;-77
2023/01/19 11:08:28;;;;;;;18.90;9.90;;;5.40;1.00;;;;;;4954285;28;20431;-77
2023/01/19 11:11:03;;;;;;;15.27;8.93;;;6.10;1.00;;;;;;4951731;28;20574;-77
2023/01/19 11:13:29;;;;;;;15.33;9.27;;;5.60;1.00;;;;;;4950037;28;20463;-76
2023/01/19 11:15:58;;;;;;;13.80;9.07;;;5.20;1.00;;;;;;4953418;28;20428;-77
2023/01/19 11:18:38;;;;;;;14.93;9.83;;;5.10;1.00;;;;;;4951676;28;20997;-76
2023/01/19 11:21:09;;;;;;;14.00;9.23;;;5.20;1.00;;;;;;4952703;28;20969;-76
2023/01/19 11:23:51;;;;;;;16.30;9.40;;;5.00;1.00;;;;;;4954413;28;20431;-76
2023/01/19 11:26:41;;;;;;;13.10;9.03;;;5.30;1.00;;;;;;4953613;28;20917;-77
2023/01/19 11:29:24;;;;;;;14.13;8.63;;;4.50;1.00;;;;;;4953796;28;20466;-77
2023/01/19 11:31:51;;;;;;;12.37;8.60;;;4.50;1.00;;;;;;4953776;28;20444;-77
2023/01/19 11:34:32;;;;;;;16.53;9.40;;;4.50;1.00;;;;;;4953654;28;20424;-77
2023/01/19 11:37:04;;;;;;;14.50;7.93;;;4.50;1.00;;;;;;4952478;28;20821;-76
2023/01/19 11:39:43;;;;;;;15.60;9.80;;;4.10;1.00;;;;;;4950542;28;20442;-78
2023/01/19 11:42:11;;;;;;;14.80;9.07;;;4.50;1.00;;;;;;4953477;28;20431;-77
2023/01/19 11:45:06;;;;;;;11.90;8.47;;;3.90;1.00;;;;;;4952990;28;20428;-78
2023/01/19 11:47:48;;;;;;;15.20;8.93;;;3.90;1.00;;;;;;4953023;28;20463;-78
2023/01/19 11:50:24;;;;;;;13.20;8.00;;;3.80;1.00;;;;;;4952069;28;20463;-78
2023/01/19 11:53:04;;;;;;;16.00;9.80;;;3.70;1.00;;;;;;4952059;28;20975;-78
2023/01/19 11:55:47;;;;;;;14.50;8.27;;;3.70;1.00;;;;;;4951179;28;20507;-78
2023/01/19 11:58:15;;;;;;;14.20;8.83;;;4.20;1.00;;;;;;4950843;28;20474;-78
2023/01/19 12:00:45;;;;;;;14.10;8.47;;;3.90;1.00;;;;;;4954562;28;20449;-78
2023/01/19 12:03:41;;;;;;;14.23;9.47;;;4.30;1.00;;;;;;4952540;28;20432;-78
2023/01/19 12:06:12;;;;;;;13.30;8.57;;;4.00;1.00;;;;;;4952876;28;20455;-77
2023/01/19 12:08:50;;;;;;;14.07;9.57;;;4.10;1.00;;;;;;4953135;28;20447;-78
2023/01/19 12:11:21;;;;;;;15.00;7.70;;;4.10;1.00;;;;;;4952618;28;20451;-77
2023/01/19 12:13:47;;;;;;;13.40;7.80;;;4.20;1.00;;;;;;4953054;28;20424;-77
2023/01/19 12:16:19;;;;;;;17.23;8.87;;;4.10;1.00;;;;;;4952480;28;20915;-77
2023/01/19 12:18:58;;;;;;;15.30;8.80;;;4.50;1.00;;;;;;4948759;28;20452;-77
2023/01/19 12:21:24;;;;;;;13.00;8.27;;;4.10;1.00;;;;;;4952141;28;20452;-78
2023/01/19 12:24:27;;;;;;;12.50;8.23;;;4.00;1.00;;;;;;4953489;28;20807;-77
2023/01/19 12:26:55;;;;;;;14.73;8.43;;;4.00;1.00;;;;;;4961078;28;20210;-78
2023/01/19 12:29:24;;;;;;;14.63;8.13;;;4.10;1.00;;;;;;4946623;28;20440;-78
2023/01/19 12:32:15;;;;;;;12.40;8.53;;;4.70;1.00;;;;;;4951688;28;20443;-77
2023/01/19 12:34:48;;;;;;;14.03;8.00;;;4.30;1.00;;;;;;4952483;28;20933;-77
2023/01/19 12:37:41;;;;;;;12.67;8.17;;;4.20;1.00;;;;;;4950415;28;20472;-77
2023/01/19 12:40:27;;;;;;;15.03;8.50;;;4.90;1.00;;;;;;4951831;28;20456;-78
2023/01/19 12:43:03;;;;;;;13.70;8.93;;;4.50;1.00;;;;;;4949155;28;20432;-78
2023/01/19 12:45:33;;;;;;;21.93;13.67;;;4.50;1.00;;;;;;4950109;28;20684;-78
2023/01/19 12:48:01;;;;;;;13.50;8.90;;;4.50;1.00;;;;;;4952278;28;20942;-77
2023/01/19 12:50:36;;;;;;;19.57;12.47;;;4.60;1.00;;;;;;4951848;28;20511;-77
2023/01/19 12:53:07;;;;;;;12.07;8.40;;;4.70;1.00;;;;;;4952198;28;20467;-77
2023/01/19 12:55:35;;;;;;;14.83;7.80;;;4.90;1.00;;;;;;4944418;28;20747;-77
2023/01/19 12:58:20;;;;;;;12.40;7.10;;;5.10;1.00;;;;;;4951910;28;20474;-78
2023/01/19 13:00:47;;;;;;;14.10;8.87;;;5.50;1.00;;;;;;4950342;28;20451;-78
2023/01/19 13:03:16;;;;;;;11.50;7.80;;;5.70;1.00;;;;;;4951210;28;20436;-78
2023/01/19 13:05:41;;;;;;;14.63;9.00;;;5.80;1.00;;;;;;4951424;28;20448;-77
2023/01/19 13:08:07;;;;;;;15.70;7.87;;;6.00;1.00;;;;;;4951806;28;20463;-75
2023/01/19 13:11:01;;;;;;;12.30;7.63;;;6.10;1.00;;;;;;4952096;28;20678;-78